Mountain Home AFB, Idaho
Current Conditions -  °F | °C
As of 12:58 AM on Thursday 23 Oct 2014 (Local Time) from KMUO Reporting Station
Few Clouds Few Clouds  
Wind Chill: 55°   Ceiling: Unl
Heat Index: 55°   Visibility: 10mi
Dew Point: 35°   Wind: 8mph
Humidity: 46%   Direction: 120°ESE
Pressure: 30.04"   Gusts: NA
Location:  43.05°N, 115.86°W
Report Text: KMUO 230658Z AUTO 12007KT 10SM FEW055 13/02 A3004 RMK AO2 SLP166 T01280015 401630032
Loading
Personal Weather Stations






























Interactive Weather Map
Tropical Storm Tracking
New forecast layout! Learn more

10-Day Weather Forecast

Advertisements
Track Severe Weather on mobile